createdAt,value
2022-09-07T00:00:09.448Z,21.51
2022-09-07T00:03:06.999Z,21.28
2022-09-07T00:06:08.932Z,21.16
2022-09-07T00:09:06.707Z,21.14
2022-09-07T00:12:04.080Z,21.16
2022-09-07T00:15:04.159Z,21.21
2022-09-07T00:18:01.829Z,21.25
2022-09-07T00:21:00.406Z,21.19
2022-09-07T00:23:57.967Z,21.24
2022-09-07T00:26:55.660Z,21.14
2022-09-07T00:29:52.629Z,21.10
2022-09-07T00:32:49.526Z,21.18
2022-09-07T00:35:46.986Z,21.12
2022-09-07T00:38:44.192Z,21.13
2022-09-07T00:41:41.894Z,21.10
2022-09-07T00:44:44.505Z,21.22
2022-09-07T00:47:43.871Z,21.30
2022-09-07T00:50:54.142Z,21.27
2022-09-07T00:53:58.139Z,21.24
2022-09-07T00:56:55.817Z,21.32
2022-09-07T00:59:53.097Z,21.42
2022-09-07T01:02:51.152Z,21.41
2022-09-07T01:06:10.275Z,21.54
2022-09-07T01:09:13.402Z,21.38
2022-09-07T01:12:10.696Z,21.31
2022-09-07T01:15:07.835Z,21.35
2022-09-07T01:18:24.890Z,21.61
2022-09-07T01:21:26.528Z,21.44
2022-09-07T01:24:38.892Z,21.39
2022-09-07T01:27:59.945Z,21.46
2022-09-07T01:31:07.722Z,21.79
2022-09-07T01:34:16.735Z,21.73
2022-09-07T01:37:25.068Z,21.20
2022-09-07T01:40:53.872Z,21.45
2022-09-07T01:44:04.169Z,21.72
2022-09-07T01:47:02.988Z,22.05
2022-09-07T01:50:10.289Z,21.94
2022-09-07T01:53:19.765Z,21.38
2022-09-07T01:56:24.935Z,20.87
2022-09-07T01:59:39.534Z,20.95
2022-09-07T02:02:49.530Z,21.08
2022-09-07T02:05:52.751Z,21.09
2022-09-07T02:09:12.333Z,21.02
2022-09-07T02:12:16.874Z,20.50
2022-09-07T02:15:15.804Z,20.84
2022-09-07T02:18:14.298Z,21.11
2022-09-07T02:21:12.859Z,21.41
2022-09-07T02:24:23.346Z,21.32
2022-09-07T02:27:51.913Z,21.27
2022-09-07T02:30:48.876Z,20.92
2022-09-07T02:33:46.029Z,21.41
2022-09-07T02:36:48.078Z,21.54
2022-09-07T02:39:44.916Z,21.35
2022-09-07T02:42:41.794Z,21.10
2022-09-07T02:45:44.668Z,21.07
2022-09-07T02:49:03.926Z,21.16
2022-09-07T02:52:22.379Z,21.11
2022-09-07T02:55:27.089Z,21.30
2022-09-07T02:58:32.607Z,21.28
2022-09-07T03:01:47.681Z,21.35
2022-09-07T03:04:54.603Z,21.27
2022-09-07T03:07:59.559Z,21.20
2022-09-07T03:10:56.792Z,21.19
2022-09-07T03:14:16.059Z,20.90
2022-09-07T03:17:13.022Z,20.50
2022-09-07T03:20:09.902Z,20.44
2022-09-07T03:23:06.471Z,20.24
2022-09-07T03:26:04.433Z,20.06
2022-09-07T03:29:02.068Z,19.83
2022-09-07T03:31:58.895Z,19.63
2022-09-07T03:34:56.044Z,19.74
2022-09-07T03:37:53.070Z,19.69
2022-09-07T03:41:00.933Z,19.64
2022-09-07T03:43:57.703Z,19.66
2022-09-07T03:46:54.957Z,19.77
2022-09-07T03:49:51.850Z,19.86
2022-09-07T03:52:48.671Z,20.03
2022-09-07T03:55:56.421Z,20.41
2022-09-07T03:58:54.738Z,20.54
2022-09-07T04:01:52.099Z,20.42
2022-09-07T04:04:49.102Z,20.54
2022-09-07T04:07:45.654Z,20.52
2022-09-07T04:10:43.927Z,20.54
2022-09-07T04:13:42.141Z,20.79
2022-09-07T04:16:39.399Z,21.27
2022-09-07T04:19:36.973Z,21.27
2022-09-07T04:22:33.778Z,21.14
2022-09-07T04:25:30.937Z,21.13
2022-09-07T04:28:30.630Z,20.75
2022-09-07T04:31:28.035Z,20.87
2022-09-07T04:34:24.922Z,20.84
2022-09-07T04:37:21.762Z,20.93
2022-09-07T04:40:18.628Z,21.27
2022-09-07T04:43:16.342Z,20.77
2022-09-07T04:46:13.921Z,20.61
2022-09-07T04:49:11.203Z,20.86
2022-09-07T04:52:08.413Z,20.77
2022-09-07T04:55:06.625Z,20.73
2022-09-07T04:58:04.133Z,20.68
2022-09-07T05:01:05.023Z,20.66
2022-09-07T05:04:04.167Z,20.53
2022-09-07T05:07:01.006Z,20.53
2022-09-07T05:09:58.143Z,20.56
2022-09-07T05:12:55.169Z,20.26
2022-09-07T05:15:51.922Z,20.32
2022-09-07T05:18:52.617Z,20.31
2022-09-07T05:21:50.161Z,20.31
2022-09-07T05:24:47.755Z,20.17
2022-09-07T05:27:47.938Z,20.11
2022-09-07T05:37:20.484Z,20.65
2022-09-07T05:40:18.553Z,20.66
2022-09-07T05:43:16.414Z,20.81
2022-09-07T05:46:14.566Z,20.66
2022-09-07T05:49:12.008Z,20.37
2022-09-07T05:52:08.900Z,20.12
2022-09-07T05:55:26.310Z,20.27
2022-09-07T05:58:23.002Z,20.27
2022-09-07T06:01:19.940Z,20.08
2022-09-07T06:04:16.853Z,19.84
2022-09-07T06:07:22.157Z,19.73
2022-09-07T06:13:37.499Z,19.38
2022-09-07T06:16:35.211Z,19.25
2022-09-07T06:19:31.948Z,19.28
2022-09-07T06:22:31.246Z,19.24
2022-09-07T06:25:29.196Z,19.32
2022-09-07T06:28:48.894Z,19.50
2022-09-07T06:35:04.581Z,19.73
2022-09-07T06:38:05.096Z,19.73
2022-09-07T06:44:30.455Z,19.80
2022-09-07T06:47:28.135Z,19.71
2022-09-07T06:50:27.838Z,19.69
2022-09-07T06:56:30.122Z,19.44
2022-09-07T06:59:26.921Z,19.39
2022-09-07T07:02:23.787Z,19.58
2022-09-07T07:05:21.365Z,19.67
2022-09-07T07:08:19.082Z,19.84
2022-09-07T07:11:16.229Z,19.89
2022-09-07T07:14:17.337Z,19.76
2022-09-07T07:17:13.855Z,19.90
2022-09-07T07:20:11.238Z,20.21
2022-09-07T07:23:08.268Z,20.27
2022-09-07T07:26:10.497Z,20.34
2022-09-07T07:29:08.457Z,20.40
2022-09-07T07:32:06.133Z,20.59
2022-09-07T07:35:02.881Z,20.87
2022-09-07T07:44:35.799Z,20.78
2022-09-07T07:47:33.187Z,20.79
2022-09-07T07:50:30.997Z,20.66
2022-09-07T07:53:44.652Z,20.63
2022-09-07T07:56:42.479Z,20.48
2022-09-07T07:59:39.315Z,20.45
2022-09-07T08:02:37.001Z,20.53
2022-09-07T08:05:37.478Z,20.74
2022-09-07T08:08:35.882Z,21.05
2022-09-07T08:11:34.360Z,21.19
2022-09-07T08:14:31.098Z,21.17
2022-09-07T08:17:28.410Z,21.29
2022-09-07T08:20:25.501Z,21.42
2022-09-07T08:23:22.885Z,21.62
2022-09-07T08:26:20.764Z,21.76
2022-09-07T08:29:18.119Z,21.84
2022-09-07T08:32:17.362Z,22.01
2022-09-07T08:35:14.353Z,21.98
2022-09-07T08:38:11.296Z,21.92
2022-09-07T08:41:36.054Z,21.90
2022-09-07T08:44:59.284Z,22.05
2022-09-07T08:47:56.624Z,22.20
2022-09-07T08:51:03.252Z,22.02
2022-09-07T08:54:00.421Z,22.20
2022-09-07T09:00:16.945Z,22.23
2022-09-07T09:03:30.018Z,22.63
2022-09-07T09:06:44.308Z,22.55
2022-09-07T09:10:18.800Z,22.58
2022-09-07T09:13:57.921Z,22.68
2022-09-07T09:17:00.010Z,23.09
2022-09-07T09:20:04.561Z,23.19
2022-09-07T09:23:05.703Z,23.31
2022-09-07T09:26:07.741Z,23.15
2022-09-07T09:29:15.639Z,23.41
2022-09-07T09:32:33.386Z,23.26
2022-09-07T09:35:35.379Z,23.28
2022-09-07T09:38:33.740Z,22.76
2022-09-07T09:41:37.244Z,22.71
2022-09-07T09:44:34.471Z,23.05
2022-09-07T09:47:32.836Z,22.96
2022-09-07T09:54:06.075Z,22.76
2022-09-07T09:57:03.889Z,23.07
2022-09-07T10:00:05.287Z,23.25
2022-09-07T10:06:32.530Z,23.21
2022-09-07T10:09:56.127Z,23.32
2022-09-07T10:12:54.267Z,23.26
2022-09-07T10:15:52.592Z,23.33
2022-09-07T10:18:57.984Z,23.41
2022-09-07T10:21:58.098Z,23.27
2022-09-07T10:24:55.230Z,23.38
2022-09-07T10:28:01.967Z,23.08
2022-09-07T10:31:30.277Z,23.00
2022-09-07T10:34:48.274Z,23.02
2022-09-07T10:38:13.132Z,22.91
2022-09-07T10:41:10.466Z,23.12
2022-09-07T10:44:11.723Z,23.18
2022-09-07T10:47:25.688Z,23.32
2022-09-07T10:50:33.398Z,23.26
2022-09-07T10:53:43.057Z,23.18
2022-09-07T10:56:51.391Z,22.91
2022-09-07T11:00:08.358Z,22.99
2022-09-07T11:03:27.122Z,23.02
2022-09-07T11:06:34.637Z,22.87
2022-09-07T11:09:36.681Z,22.84
2022-09-07T11:12:35.899Z,23.03
2022-09-07T11:15:35.673Z,23.20
2022-09-07T11:18:37.673Z,23.25
2022-09-07T11:28:43.233Z,23.57
2022-09-07T11:31:47.023Z,23.63
2022-09-07T11:34:52.537Z,23.40
2022-09-07T11:37:57.443Z,23.56
2022-09-07T11:41:14.409Z,23.76
2022-09-07T11:44:29.673Z,24.01
2022-09-07T11:47:33.921Z,23.97
2022-09-07T11:50:33.381Z,24.10
2022-09-07T11:53:32.863Z,23.85
2022-09-07T11:56:36.787Z,23.77
2022-09-07T12:00:12.605Z,23.82
2022-09-07T12:03:36.085Z,23.63
2022-09-07T12:06:41.995Z,23.51
2022-09-07T12:10:06.683Z,23.69
2022-09-07T12:13:08.313Z,23.91
2022-09-07T12:16:23.973Z,24.18
2022-09-07T12:19:25.229Z,24.29
2022-09-07T12:22:22.414Z,24.22
2022-09-07T12:25:19.498Z,24.06
2022-09-07T12:28:36.620Z,24.19
2022-09-07T12:32:52.661Z,24.18
2022-09-07T12:35:27.914Z,24.11
2022-09-07T12:38:31.602Z,23.97
2022-09-07T12:41:41.377Z,24.25
2022-09-07T12:44:38.067Z,24.47
2022-09-07T12:47:35.201Z,24.61
2022-09-07T12:50:39.397Z,24.93
2022-09-07T12:54:01.995Z,24.84
2022-09-07T13:00:23.284Z,24.86
2022-09-07T13:10:03.138Z,24.79
2022-09-07T13:13:03.200Z,25.09
2022-09-07T13:16:06.583Z,25.09
2022-09-07T13:19:05.064Z,25.16
2022-09-07T13:22:02.246Z,25.23
2022-09-07T13:25:00.689Z,25.39
2022-09-07T13:28:00.810Z,25.14
2022-09-07T13:31:25.235Z,25.32
2022-09-07T13:34:34.453Z,25.27
2022-09-07T13:38:00.693Z,24.61
2022-09-07T13:41:12.755Z,24.39
2022-09-07T13:44:26.129Z,24.62
2022-09-07T13:47:27.396Z,24.86
2022-09-07T13:50:52.495Z,24.86
2022-09-07T13:53:55.570Z,25.11
2022-09-07T13:57:25.166Z,25.12
2022-09-07T14:00:22.578Z,25.08
2022-09-07T14:03:19.708Z,25.48
2022-09-07T14:06:37.142Z,25.25
2022-09-07T14:09:34.590Z,25.46
2022-09-07T14:12:31.248Z,25.52
2022-09-07T14:15:32.451Z,25.60
2022-09-07T14:18:30.814Z,25.65
2022-09-07T14:21:27.509Z,25.68
2022-09-07T14:24:35.698Z,25.75
2022-09-07T14:27:33.187Z,25.61
2022-09-07T14:30:33.205Z,25.70
2022-09-07T14:33:30.512Z,25.66
2022-09-07T14:36:47.979Z,25.74
2022-09-07T14:39:46.984Z,25.50
2022-09-07T14:42:44.342Z,25.52
2022-09-07T14:45:41.606Z,25.53
2022-09-07T14:48:39.544Z,25.67
2022-09-07T14:51:37.021Z,25.41
2022-09-07T14:54:34.969Z,25.55
2022-09-07T14:57:32.863Z,25.74
2022-09-07T15:00:32.993Z,25.86
2022-09-07T15:03:30.610Z,25.89
2022-09-07T15:09:53.830Z,25.85
2022-09-07T15:12:58.853Z,25.47
2022-09-07T15:16:00.090Z,25.47
2022-09-07T15:19:15.500Z,25.50
2022-09-07T15:22:13.662Z,25.55
2022-09-07T15:25:11.257Z,25.68
2022-09-07T15:29:08.172Z,25.67
2022-09-07T15:31:42.502Z,25.36
2022-09-07T15:34:40.898Z,25.35
2022-09-07T15:41:21.960Z,25.31
2022-09-07T15:44:15.093Z,25.35
2022-09-07T15:50:29.500Z,25.52
2022-09-07T15:57:47.695Z,25.76
2022-09-07T16:00:01.824Z,25.89
2022-09-07T16:03:09.887Z,25.92
2022-09-07T16:06:13.566Z,25.81
2022-09-07T16:09:10.385Z,25.67
2022-09-07T16:15:27.065Z,25.92
2022-09-07T16:18:24.613Z,26.03
2022-09-07T16:21:26.269Z,26.09
2022-09-07T16:24:23.741Z,26.03
2022-09-07T16:27:20.815Z,26.00
2022-09-07T16:30:17.650Z,25.93
2022-09-07T16:33:14.393Z,25.81
2022-09-07T16:36:14.389Z,25.74
2022-09-07T16:39:11.664Z,25.64
2022-09-07T16:42:09.078Z,25.69
2022-09-07T16:48:24.880Z,25.46
2022-09-07T16:51:23.779Z,25.45
2022-09-07T16:54:21.187Z,25.42
2022-09-07T16:57:18.848Z,25.38
2022-09-07T17:00:16.529Z,25.38
2022-09-07T17:03:13.719Z,25.41
2022-09-07T17:06:12.036Z,25.54
2022-09-07T17:09:11.333Z,25.52
2022-09-07T17:12:12.387Z,25.34
2022-09-07T17:15:10.249Z,25.31
2022-09-07T17:18:07.705Z,25.24
2022-09-07T17:21:06.320Z,25.14
2022-09-07T17:24:04.584Z,25.01
2022-09-07T17:27:01.706Z,24.88
2022-09-07T17:29:58.433Z,24.81
2022-09-07T17:32:55.761Z,24.85
2022-09-07T17:35:52.593Z,24.84
2022-09-07T17:42:07.886Z,24.53
2022-09-07T17:45:05.722Z,24.48
2022-09-07T17:48:02.634Z,24.48
2022-09-07T17:51:03.921Z,24.55
2022-09-07T17:54:02.807Z,24.53
2022-09-07T17:56:59.717Z,24.57
2022-09-07T18:00:12.447Z,24.62
2022-09-07T18:03:09.653Z,24.41
2022-09-07T18:06:06.901Z,24.25
2022-09-07T18:09:06.710Z,24.26
2022-09-07T18:12:04.083Z,24.30
2022-09-07T18:15:01.594Z,24.24
2022-09-07T18:17:58.926Z,24.12
2022-09-07T18:20:55.631Z,24.04
2022-09-07T18:23:54.083Z,24.03
2022-09-07T18:26:52.897Z,23.97
2022-09-07T18:29:50.195Z,23.90
2022-09-07T18:32:47.639Z,23.96
2022-09-07T18:35:46.241Z,23.88
2022-09-07T18:38:43.820Z,23.65
2022-09-07T18:41:41.098Z,23.51
2022-09-07T18:47:55.395Z,23.26
2022-09-07T18:50:55.797Z,23.13
2022-09-07T18:53:52.589Z,23.00
2022-09-07T18:56:49.874Z,22.95
2022-09-07T18:59:47.611Z,22.95
2022-09-07T19:02:45.932Z,22.92
2022-09-07T19:05:50.001Z,22.92
2022-09-07T19:08:48.091Z,23.08
2022-09-07T19:11:46.082Z,23.25
2022-09-07T19:14:43.601Z,23.14
2022-09-07T19:17:40.980Z,22.86
2022-09-07T19:20:38.024Z,22.80
2022-09-07T19:23:36.069Z,22.73
2022-09-07T19:26:37.657Z,22.70
2022-09-07T19:29:34.816Z,22.72
2022-09-07T19:32:31.679Z,22.52
2022-09-07T19:35:29.045Z,22.51
2022-09-07T19:38:25.779Z,22.58
2022-09-07T19:41:22.827Z,22.57
2022-09-07T19:44:19.477Z,22.49
2022-09-07T19:47:16.629Z,22.44
2022-09-07T19:50:14.151Z,22.24
2022-09-07T19:53:11.726Z,22.10
2022-09-07T19:56:17.292Z,21.93
2022-09-07T19:59:14.941Z,21.96
2022-09-07T20:02:11.792Z,21.92
2022-09-07T20:05:08.809Z,22.02
2022-09-07T20:08:06.848Z,22.10
2022-09-07T20:11:05.701Z,22.04
2022-09-07T20:14:03.207Z,22.03
2022-09-07T20:17:01.414Z,22.03
2022-09-07T20:19:58.757Z,21.90
2022-09-07T20:22:56.138Z,21.77
2022-09-07T20:25:57.531Z,21.64
2022-09-07T20:29:10.715Z,21.51
2022-09-07T20:32:13.445Z,21.34
2022-09-07T20:35:10.795Z,21.23
2022-09-07T20:38:07.894Z,21.18
2022-09-07T20:41:04.732Z,21.30
2022-09-07T20:44:02.951Z,21.31
2022-09-07T20:46:59.955Z,21.32
2022-09-07T20:49:56.992Z,21.44
2022-09-07T20:52:53.779Z,21.62
2022-09-07T20:56:00.307Z,21.51
2022-09-07T20:59:01.539Z,21.38
2022-09-07T21:01:58.805Z,21.30
2022-09-07T21:04:56.186Z,21.40
2022-09-07T21:07:54.206Z,21.49
2022-09-07T21:10:51.733Z,21.50
2022-09-07T21:13:54.733Z,21.50
2022-09-07T21:16:51.960Z,21.29
2022-09-07T21:19:49.113Z,21.14
2022-09-07T21:22:45.833Z,21.18
2022-09-07T21:25:44.089Z,21.25
2022-09-07T21:28:40.835Z,21.35
2022-09-07T21:31:37.751Z,21.07
2022-09-07T21:34:34.868Z,20.84
2022-09-07T21:37:31.789Z,20.79
2022-09-07T21:40:29.223Z,20.93
2022-09-07T21:43:27.120Z,21.10
2022-09-07T21:46:24.462Z,21.11
2022-09-07T21:49:22.140Z,21.02
2022-09-07T21:52:20.143Z,20.82
2022-09-07T21:55:17.021Z,20.64
2022-09-07T21:58:13.573Z,20.50
2022-09-07T22:01:17.290Z,20.45
2022-09-07T22:04:14.799Z,20.65
2022-09-07T22:07:11.941Z,20.95
2022-09-07T22:10:09.638Z,21.14
2022-09-07T22:13:07.182Z,21.08
2022-09-07T22:16:04.382Z,20.93
2022-09-07T22:19:01.845Z,20.73
2022-09-07T22:21:58.861Z,20.58
2022-09-07T22:24:56.001Z,20.51
2022-09-07T22:27:53.345Z,20.44
2022-09-07T22:30:50.946Z,20.36
2022-09-07T22:33:48.698Z,20.38
2022-09-07T22:36:45.896Z,20.42
2022-09-07T22:39:42.916Z,20.47
2022-09-07T22:42:39.874Z,20.46
2022-09-07T22:45:36.895Z,20.28
2022-09-07T22:48:34.044Z,20.20
2022-09-07T22:51:30.804Z,20.17
2022-09-07T22:54:27.599Z,20.15
2022-09-07T22:57:25.136Z,20.14
2022-09-07T23:00:21.978Z,20.10
2022-09-07T23:03:18.855Z,20.16
2022-09-07T23:06:29.681Z,20.18
2022-09-07T23:09:27.188Z,20.08
2022-09-07T23:12:24.998Z,20.09
2022-09-07T23:15:22.150Z,20.05
2022-09-07T23:18:20.492Z,19.92
2022-09-07T23:21:17.621Z,19.76
2022-09-07T23:24:16.597Z,19.58
2022-09-07T23:27:14.109Z,19.55
2022-09-07T23:30:11.870Z,19.49
2022-09-07T23:33:09.415Z,19.41
2022-09-07T23:36:08.075Z,19.27
2022-09-07T23:39:05.230Z,19.42
2022-09-07T23:42:01.962Z,19.49
2022-09-07T23:44:59.179Z,19.56
2022-09-07T23:47:56.313Z,19.60
2022-09-07T23:50:54.191Z,19.59
2022-09-07T23:53:51.168Z,19.37
2022-09-07T23:56:48.052Z,19.05
2022-09-07T23:59:45.145Z,18.90
